createdAt,value
2019-03-26T00:00:50.874Z,5.00
2019-03-26T00:03:20.719Z,5.20
2019-03-26T00:05:50.661Z,6.90
2019-03-26T00:08:20.515Z,6.00
2019-03-26T00:10:50.447Z,5.90
2019-03-26T00:13:22.723Z,6.17
2019-03-26T00:15:57.508Z,5.40
2019-03-26T00:18:31.744Z,6.13
2019-03-26T00:21:04.364Z,5.73
2019-03-26T00:23:34.190Z,5.47
2019-03-26T00:26:04.326Z,5.10
2019-03-26T00:28:39.741Z,5.73
2019-03-26T00:31:13.639Z,4.97
2019-03-26T00:33:45.653Z,4.47
2019-03-26T00:36:20.201Z,4.87
2019-03-26T00:38:57.537Z,4.80
2019-03-26T00:41:28.672Z,4.90
2019-03-26T00:43:58.511Z,4.60
2019-03-26T00:46:28.367Z,4.10
2019-03-26T00:48:58.233Z,4.20
2019-03-26T00:51:28.089Z,4.33
2019-03-26T00:53:57.967Z,3.63
2019-03-26T00:56:34.560Z,3.97
2019-03-26T00:59:04.427Z,5.23
2019-03-26T01:01:36.575Z,3.73
2019-03-26T01:04:11.148Z,4.27
2019-03-26T01:06:43.602Z,4.23
2019-03-26T01:09:13.467Z,4.50
2019-03-26T01:11:43.364Z,3.57
2019-03-26T01:14:13.204Z,3.93
2019-03-26T01:16:45.149Z,3.97
2019-03-26T01:19:15.046Z,4.73
2019-03-26T01:21:44.938Z,4.80
2019-03-26T01:24:23.625Z,4.40
2019-03-26T01:27:02.840Z,4.23
2019-03-26T01:29:42.839Z,4.43
2019-03-26T01:32:12.785Z,4.63
2019-03-26T01:34:46.176Z,5.20
2019-03-26T01:37:14.264Z,4.70
2019-03-26T01:39:47.145Z,4.80
2019-03-26T01:42:17.072Z,4.77
2019-03-26T01:44:46.936Z,4.80
2019-03-26T01:47:18.411Z,4.70
2019-03-26T01:49:48.377Z,4.40
2019-03-26T01:52:18.218Z,4.77
2019-03-26T01:54:48.076Z,4.63
2019-03-26T01:57:17.934Z,4.50
2019-03-26T01:59:55.691Z,5.47
2019-03-26T02:02:25.595Z,4.77
2019-03-26T02:05:05.094Z,5.53
2019-03-26T02:07:35.035Z,5.13
2019-03-26T02:10:15.341Z,5.27
2019-03-26T02:12:48.344Z,5.30
2019-03-26T02:15:28.069Z,6.17
2019-03-26T02:17:57.995Z,6.27
2019-03-26T02:20:30.861Z,6.30
2019-03-26T02:23:00.841Z,5.47
2019-03-26T02:25:30.676Z,6.07
2019-03-26T02:28:00.558Z,7.13
2019-03-26T02:30:30.474Z,7.20
2019-03-26T02:33:00.483Z,8.13
2019-03-26T02:35:30.399Z,6.60
2019-03-26T02:38:00.331Z,6.87
2019-03-26T02:40:30.233Z,7.10
2019-03-26T02:43:00.205Z,6.63
2019-03-26T02:45:30.078Z,7.17
2019-03-26T02:47:59.939Z,6.97
2019-03-26T02:50:29.925Z,6.10
2019-03-26T02:52:59.872Z,6.27
2019-03-26T02:55:29.763Z,5.67
2019-03-26T02:57:59.677Z,5.07
2019-03-26T03:00:29.506Z,5.30
2019-03-26T03:02:59.418Z,5.13
2019-03-26T03:05:35.652Z,4.13
2019-03-26T03:08:01.051Z,5.13
2019-03-26T03:10:30.915Z,4.97
2019-03-26T03:13:00.829Z,5.60
2019-03-26T03:15:30.677Z,4.90
2019-03-26T03:18:00.616Z,4.80
2019-03-26T03:20:30.437Z,4.80
2019-03-26T03:23:00.328Z,4.73
2019-03-26T03:25:30.269Z,4.43
2019-03-26T03:28:00.277Z,4.10
2019-03-26T03:30:30.218Z,3.80
2019-03-26T03:33:00.226Z,4.43
2019-03-26T03:35:30.107Z,3.67
2019-03-26T03:38:00.021Z,3.97
2019-03-26T03:40:29.865Z,3.67
2019-03-26T03:42:59.734Z,3.87
2019-03-26T03:45:30.640Z,4.17
2019-03-26T03:48:00.817Z,4.23
2019-03-26T03:50:32.647Z,5.27
2019-03-26T03:53:02.661Z,4.53
2019-03-26T03:55:33.191Z,5.77
2019-03-26T03:58:03.449Z,6.43
2019-03-26T04:00:37.530Z,7.43
2019-03-26T04:03:07.985Z,7.70
2019-03-26T04:05:38.368Z,7.87
2019-03-26T04:08:08.399Z,6.23
2019-03-26T04:10:41.273Z,5.90
2019-03-26T04:13:11.207Z,6.37
2019-03-26T04:15:41.122Z,6.07
2019-03-26T04:18:11.056Z,7.93
2019-03-26T04:20:40.874Z,8.30
2019-03-26T04:23:10.897Z,8.67
2019-03-26T04:25:40.810Z,8.30
2019-03-26T04:28:10.733Z,8.77
2019-03-26T04:30:40.596Z,7.93
2019-03-26T04:33:10.469Z,8.60
2019-03-26T04:35:40.335Z,7.87
2019-03-26T04:38:10.177Z,7.67
2019-03-26T04:40:40.058Z,7.50
2019-03-26T04:43:10.009Z,6.47
2019-03-26T04:45:39.892Z,6.43
2019-03-26T04:48:09.800Z,5.23
2019-03-26T04:50:39.667Z,5.27
2019-03-26T04:53:09.513Z,5.63
2019-03-26T04:55:39.493Z,5.60
2019-03-26T04:58:09.354Z,5.10
2019-03-26T05:00:39.333Z,5.37
2019-03-26T05:03:09.194Z,4.70
2019-03-26T05:05:39.040Z,5.90
2019-03-26T05:08:08.923Z,5.07
2019-03-26T05:10:38.810Z,6.63
2019-03-26T05:13:08.710Z,5.77
2019-03-26T05:15:38.639Z,5.00
2019-03-26T05:18:08.514Z,6.07
2019-03-26T05:20:38.343Z,6.73
2019-03-26T05:23:08.213Z,5.80
2019-03-26T05:25:38.106Z,5.30
2019-03-26T05:28:07.961Z,5.57
2019-03-26T05:30:37.798Z,5.53
2019-03-26T05:33:07.672Z,5.77
2019-03-26T05:35:37.604Z,6.03
2019-03-26T05:38:07.571Z,5.50
2019-03-26T05:40:37.614Z,5.50
2019-03-26T05:43:07.491Z,5.23
2019-03-26T05:45:37.411Z,4.80
2019-03-26T05:48:07.267Z,5.97
2019-03-26T05:50:37.165Z,5.53
2019-03-26T05:53:09.449Z,5.90
2019-03-26T05:55:39.321Z,5.10
2019-03-26T05:58:09.276Z,5.53
2019-03-26T06:00:39.212Z,3.33
2019-03-26T06:03:09.135Z,6.13
2019-03-26T06:05:39.009Z,3.80
2019-03-26T06:08:09.023Z,3.37
2019-03-26T06:10:38.905Z,3.47
2019-03-26T06:13:08.779Z,3.77
2019-03-26T06:15:38.745Z,3.47
2019-03-26T06:18:08.657Z,3.20
2019-03-26T06:20:38.527Z,3.27
2019-03-26T06:23:08.452Z,3.97
2019-03-26T06:25:38.264Z,2.83
2019-03-26T06:28:08.176Z,3.07
2019-03-26T06:30:38.035Z,3.90
2019-03-26T06:33:07.896Z,3.23
2019-03-26T06:35:37.789Z,3.03
2019-03-26T06:38:07.682Z,3.47
2019-03-26T06:40:37.722Z,3.23
2019-03-26T06:43:07.575Z,3.20
2019-03-26T06:45:37.442Z,3.50
2019-03-26T06:48:07.392Z,4.03
2019-03-26T06:50:37.218Z,4.30
2019-03-26T06:53:07.149Z,5.27
2019-03-26T06:55:37.012Z,4.17
2019-03-26T06:58:06.912Z,3.07
2019-03-26T07:00:36.974Z,3.23
2019-03-26T07:03:07.721Z,3.87
2019-03-26T07:05:37.571Z,3.53
2019-03-26T07:08:12.920Z,3.37
2019-03-26T07:10:42.810Z,3.90
2019-03-26T07:13:16.388Z,3.73
2019-03-26T07:16:00.469Z,3.10
2019-03-26T07:18:42.839Z,3.17
2019-03-26T07:21:48.770Z,3.20
2019-03-26T07:24:04.523Z,3.60
2019-03-26T07:26:41.218Z,3.40
2019-03-26T07:29:24.420Z,4.30
2019-03-26T07:32:14.733Z,4.20
2019-03-26T07:35:00.448Z,3.27
2019-03-26T07:37:30.422Z,4.47
2019-03-26T07:40:00.440Z,3.93
2019-03-26T07:42:30.379Z,3.83
2019-03-26T07:45:00.458Z,3.83
2019-03-26T07:47:30.339Z,3.27
2019-03-26T07:50:00.364Z,3.77
2019-03-26T07:52:30.274Z,4.13
2019-03-26T07:55:00.367Z,3.60
2019-03-26T07:57:30.386Z,4.33
2019-03-26T08:00:50.346Z,3.43
2019-03-26T08:03:17.615Z,3.70
2019-03-26T08:05:47.443Z,2.60
2019-03-26T08:08:17.358Z,4.40
2019-03-26T08:10:48.653Z,4.40
2019-03-26T08:13:18.599Z,3.40
2019-03-26T08:15:48.558Z,3.30
2019-03-26T08:18:18.486Z,2.93
2019-03-26T08:20:48.401Z,3.17
2019-03-26T08:23:19.819Z,3.30
2019-03-26T08:25:49.701Z,3.17
2019-03-26T08:28:19.601Z,3.30
2019-03-26T08:30:50.351Z,3.63
2019-03-26T08:33:23.255Z,2.77
2019-03-26T08:35:54.239Z,2.53
2019-03-26T08:38:24.112Z,3.10
2019-03-26T08:40:53.967Z,3.50
2019-03-26T08:43:23.858Z,2.87
2019-03-26T08:45:53.756Z,3.07
2019-03-26T08:48:23.666Z,3.50
2019-03-26T08:50:54.644Z,3.17
2019-03-26T08:53:24.570Z,3.33
2019-03-26T08:55:54.452Z,3.77
2019-03-26T08:58:24.384Z,3.33
2019-03-26T09:00:54.309Z,3.80
2019-03-26T09:03:24.308Z,3.37
2019-03-26T09:05:54.316Z,4.43
2019-03-26T09:08:25.617Z,3.27
2019-03-26T09:10:55.801Z,3.20
2019-03-26T09:13:25.715Z,3.20
2019-03-26T09:15:55.578Z,3.53
2019-03-26T09:18:25.471Z,3.83
2019-03-26T09:20:55.395Z,3.07
2019-03-26T09:23:25.306Z,3.60
2019-03-26T09:25:55.185Z,3.33
2019-03-26T09:28:25.069Z,3.20
2019-03-26T09:30:54.936Z,3.13
2019-03-26T09:33:24.786Z,2.80
2019-03-26T09:35:54.642Z,3.33
2019-03-26T09:38:38.011Z,4.23
2019-03-26T09:40:58.461Z,2.70
2019-03-26T09:43:28.324Z,3.50
2019-03-26T09:45:58.269Z,3.27
2019-03-26T09:48:28.131Z,3.27
2019-03-26T09:54:40.606Z,3.43
2019-03-26T09:57:10.564Z,3.40
2019-03-26T09:59:40.464Z,2.60
2019-03-26T10:02:10.411Z,2.77
2019-03-26T10:04:40.274Z,2.80
2019-03-26T10:07:20.755Z,2.50
2019-03-26T10:09:41.831Z,1.87
2019-03-26T10:12:11.754Z,2.90
2019-03-26T10:14:41.660Z,3.10
2019-03-26T10:17:11.690Z,3.37
2019-03-26T10:19:41.583Z,3.00
2019-03-26T10:22:11.526Z,3.07
2019-03-26T10:24:41.446Z,2.83
2019-03-26T10:27:11.374Z,3.00
2019-03-26T10:29:41.349Z,2.90
2019-03-26T10:32:11.336Z,2.93
2019-03-26T10:34:41.349Z,2.87
2019-03-26T10:37:11.349Z,3.50
2019-03-26T10:39:41.313Z,2.77
2019-03-26T10:42:11.282Z,3.33
2019-03-26T10:44:41.227Z,3.77
2019-03-26T10:47:11.210Z,3.17
2019-03-26T10:49:41.112Z,3.50
2019-03-26T10:52:11.122Z,3.63
2019-03-26T10:54:40.997Z,3.80
2019-03-26T10:57:10.871Z,3.10
2019-03-26T10:59:40.778Z,3.27
2019-03-26T11:02:10.704Z,3.20
2019-03-26T11:04:40.593Z,3.97
2019-03-26T11:07:10.499Z,2.87
2019-03-26T11:09:40.879Z,2.70
2019-03-26T11:12:10.751Z,2.80
2019-03-26T11:14:40.773Z,3.10
2019-03-26T11:17:10.672Z,3.33
2019-03-26T11:19:40.550Z,3.33
2019-03-26T11:22:10.392Z,3.47
2019-03-26T11:24:40.261Z,3.30
2019-03-26T11:27:10.210Z,3.33
2019-03-26T11:29:40.117Z,3.80
2019-03-26T11:32:10.092Z,3.37
2019-03-26T11:34:40.080Z,3.37
2019-03-26T11:37:10.052Z,3.40
2019-03-26T11:39:40.101Z,2.93
2019-03-26T11:42:10.125Z,3.33
2019-03-26T11:44:40.138Z,3.10
2019-03-26T11:47:10.159Z,3.00
2019-03-26T11:49:40.133Z,3.90
2019-03-26T11:52:10.026Z,3.40
2019-03-26T11:54:41.837Z,2.73
2019-03-26T11:57:11.615Z,2.83
2019-03-26T11:59:41.484Z,3.13
2019-03-26T12:02:12.030Z,2.70
2019-03-26T12:04:41.889Z,3.00
2019-03-26T12:07:11.850Z,3.87
2019-03-26T12:09:46.488Z,2.90
2019-03-26T12:12:13.302Z,2.90
2019-03-26T12:14:43.192Z,2.93
2019-03-26T12:17:14.935Z,2.80
2019-03-26T12:19:44.704Z,2.13
2019-03-26T12:22:14.556Z,2.67
2019-03-26T12:24:44.425Z,2.50
2019-03-26T12:27:14.328Z,3.10
2019-03-26T12:29:44.250Z,2.60
2019-03-26T12:32:14.232Z,3.40
2019-03-26T12:34:44.110Z,3.07
2019-03-26T12:37:13.987Z,3.13
2019-03-26T12:39:44.341Z,2.93
2019-03-26T12:42:14.362Z,2.53
2019-03-26T12:44:44.212Z,4.20
2019-03-26T12:47:14.076Z,3.17
2019-03-26T12:49:44.036Z,2.90
2019-03-26T12:52:13.934Z,2.57
2019-03-26T12:54:43.842Z,3.20
2019-03-26T12:57:14.029Z,3.10
2019-03-26T12:59:44.029Z,3.37
2019-03-26T13:02:13.911Z,3.77
2019-03-26T13:04:43.807Z,3.07
2019-03-26T13:07:13.694Z,3.85
2019-03-26T13:09:43.630Z,3.30
2019-03-26T13:12:13.575Z,2.67
2019-03-26T13:14:43.448Z,2.80
2019-03-26T13:17:13.421Z,2.70
2019-03-26T13:19:43.832Z,2.77
2019-03-26T13:22:13.722Z,2.67
2019-03-26T13:24:43.595Z,2.90
2019-03-26T13:27:13.576Z,3.13
2019-03-26T13:29:43.513Z,2.77
2019-03-26T13:32:13.434Z,2.93
2019-03-26T13:34:43.460Z,4.83
2019-03-26T13:37:13.304Z,4.10
2019-03-26T13:39:43.279Z,3.70
2019-03-26T13:42:13.161Z,3.37
2019-03-26T13:44:43.074Z,3.63
2019-03-26T13:47:12.996Z,2.90
2019-03-26T13:49:42.895Z,3.43
2019-03-26T13:52:12.804Z,3.03
2019-03-26T13:54:42.767Z,2.83
2019-03-26T13:57:12.639Z,3.13
2019-03-26T13:59:42.515Z,2.90
2019-03-26T14:02:12.495Z,2.83
2019-03-26T14:04:42.324Z,2.83
2019-03-26T14:07:12.199Z,2.30
2019-03-26T14:09:42.090Z,2.90
2019-03-26T14:12:11.993Z,3.10
2019-03-26T14:14:41.929Z,2.93
2019-03-26T14:17:11.802Z,3.53
2019-03-26T14:19:41.697Z,3.03
2019-03-26T14:22:11.609Z,3.00
2019-03-26T14:24:41.481Z,3.50
2019-03-26T14:27:13.096Z,3.90
2019-03-26T14:29:43.003Z,3.43
2019-03-26T14:32:13.002Z,4.07
2019-03-26T14:34:42.854Z,3.47
2019-03-26T14:37:12.862Z,4.17
2019-03-26T14:39:42.847Z,4.43
2019-03-26T14:42:12.720Z,4.00
2019-03-26T14:44:42.657Z,3.80
2019-03-26T14:47:12.519Z,3.73
2019-03-26T14:49:42.417Z,4.00
2019-03-26T14:52:12.281Z,3.63
2019-03-26T14:54:42.206Z,4.10
2019-03-26T14:57:12.051Z,4.20
2019-03-26T14:59:41.883Z,3.90
2019-03-26T15:02:11.773Z,3.83
2019-03-26T15:04:41.614Z,4.77
2019-03-26T15:07:11.472Z,4.60
2019-03-26T15:09:41.488Z,4.90
2019-03-26T15:12:11.348Z,5.20
2019-03-26T15:14:41.257Z,5.10
2019-03-26T15:17:11.113Z,4.70
2019-03-26T15:19:40.976Z,4.87
2019-03-26T15:22:10.899Z,5.03
2019-03-26T15:24:40.797Z,3.73
2019-03-26T15:27:10.633Z,3.87
2019-03-26T15:29:40.574Z,3.77
2019-03-26T15:32:10.456Z,4.13
2019-03-26T15:34:40.372Z,4.50
2019-03-26T15:37:10.240Z,4.70
2019-03-26T15:39:40.101Z,4.63
2019-03-26T15:42:09.996Z,3.67
2019-03-26T15:44:39.882Z,4.17
2019-03-26T15:47:09.890Z,4.30
2019-03-26T15:49:39.822Z,4.17
2019-03-26T15:52:09.727Z,4.07
2019-03-26T15:54:39.600Z,4.20
2019-03-26T15:57:09.446Z,3.90
2019-03-26T15:59:39.363Z,3.70
2019-03-26T16:02:09.250Z,4.10
2019-03-26T16:04:39.137Z,3.67
2019-03-26T16:07:08.990Z,4.37
2019-03-26T16:09:38.886Z,4.67
2019-03-26T16:12:08.796Z,3.67
2019-03-26T16:14:38.685Z,3.83
2019-03-26T16:17:08.552Z,4.10
2019-03-26T16:19:38.493Z,3.53
2019-03-26T16:22:08.399Z,3.40
2019-03-26T16:24:38.318Z,4.30
2019-03-26T16:27:08.176Z,3.57
2019-03-26T16:29:38.178Z,4.33
2019-03-26T16:32:08.053Z,4.73
2019-03-26T16:34:39.750Z,3.70
2019-03-26T16:37:10.247Z,4.30
2019-03-26T16:39:40.123Z,3.80
2019-03-26T16:42:10.001Z,4.00
2019-03-26T16:44:39.903Z,3.37
2019-03-26T16:47:09.860Z,3.53
2019-03-26T16:49:39.776Z,3.77
2019-03-26T16:52:09.663Z,4.03
2019-03-26T16:54:39.567Z,3.13
2019-03-26T16:57:09.435Z,2.97
2019-03-26T16:59:39.365Z,2.83
2019-03-26T17:02:09.245Z,2.77
2019-03-26T17:04:39.142Z,2.43
2019-03-26T17:07:09.068Z,3.50
2019-03-26T17:09:38.942Z,3.03
2019-03-26T17:12:08.865Z,3.50
2019-03-26T17:14:38.779Z,2.87
2019-03-26T17:17:08.721Z,2.90
2019-03-26T17:19:38.610Z,3.10
2019-03-26T17:22:08.565Z,3.80
2019-03-26T17:24:38.592Z,3.13
2019-03-26T17:27:08.525Z,3.57
2019-03-26T17:29:38.490Z,3.30
2019-03-26T17:32:08.386Z,3.10
2019-03-26T17:34:38.237Z,4.80
2019-03-26T17:37:08.209Z,3.90
2019-03-26T17:39:38.177Z,3.80
2019-03-26T17:42:17.153Z,3.10
2019-03-26T17:44:39.743Z,3.40
2019-03-26T17:47:09.696Z,3.37
2019-03-26T17:49:39.599Z,3.43
2019-03-26T17:52:09.527Z,4.05
2019-03-26T17:54:39.407Z,3.97
2019-03-26T17:57:09.326Z,3.27
2019-03-26T17:59:39.177Z,3.43
2019-03-26T18:02:09.040Z,3.30
2019-03-26T18:04:38.925Z,3.23
2019-03-26T18:07:08.866Z,5.80
2019-03-26T18:09:38.768Z,3.47
2019-03-26T18:12:08.702Z,4.10
2019-03-26T18:14:38.613Z,17.57
2019-03-26T18:17:08.468Z,4.07
2019-03-26T18:19:38.334Z,3.67
2019-03-26T18:22:08.275Z,3.83
2019-03-26T18:24:38.156Z,4.03
2019-03-26T18:27:08.043Z,3.93
2019-03-26T18:29:38.024Z,7.57
2019-03-26T18:32:07.889Z,6.13
2019-03-26T18:34:37.740Z,4.67
2019-03-26T18:37:07.760Z,3.63
2019-03-26T18:39:37.602Z,4.37
2019-03-26T18:42:07.489Z,4.80
2019-03-26T18:44:37.340Z,5.03
2019-03-26T18:47:07.796Z,4.63
2019-03-26T18:49:37.715Z,4.13
2019-03-26T18:52:07.673Z,5.10
2019-03-26T18:54:37.654Z,4.70
2019-03-26T18:57:07.593Z,5.63
2019-03-26T18:59:37.493Z,4.23
2019-03-26T19:02:07.393Z,4.43
2019-03-26T19:04:37.320Z,4.47
2019-03-26T19:07:07.300Z,4.00
2019-03-26T19:09:37.224Z,3.87
2019-03-26T19:12:07.189Z,4.17
2019-03-26T19:14:37.121Z,4.07
2019-03-26T19:17:07.085Z,3.93
2019-03-26T19:19:36.936Z,3.30
2019-03-26T19:22:06.824Z,4.17
2019-03-26T19:24:36.729Z,4.43
2019-03-26T19:27:06.669Z,3.43
2019-03-26T19:29:36.557Z,3.33
2019-03-26T19:32:06.423Z,4.50
2019-03-26T19:34:36.351Z,3.37
2019-03-26T19:37:06.336Z,4.67
2019-03-26T19:39:36.313Z,4.37
2019-03-26T19:42:06.265Z,3.30
2019-03-26T19:44:36.173Z,4.43
2019-03-26T19:47:06.073Z,5.03
2019-03-26T19:49:35.957Z,3.80
2019-03-26T19:52:05.913Z,3.73
2019-03-26T19:54:35.924Z,3.70
2019-03-26T19:57:05.857Z,4.80
2019-03-26T19:59:35.838Z,4.17
2019-03-26T20:02:05.676Z,4.40
2019-03-26T20:04:35.567Z,3.93
2019-03-26T20:07:05.470Z,4.37
2019-03-26T20:09:35.450Z,4.03
2019-03-26T20:12:05.514Z,4.23
2019-03-26T20:14:35.421Z,4.93
2019-03-26T20:17:05.347Z,4.43
2019-03-26T20:19:35.286Z,4.70
2019-03-26T20:22:05.227Z,5.30
2019-03-26T20:24:35.344Z,4.57
2019-03-26T20:27:05.335Z,5.23
2019-03-26T20:29:35.335Z,4.93
2019-03-26T20:32:05.318Z,4.93
2019-03-26T20:34:35.276Z,5.03
2019-03-26T20:37:05.232Z,5.00
2019-03-26T20:39:35.110Z,5.73
2019-03-26T20:42:05.237Z,4.80
2019-03-26T20:44:35.318Z,5.27
2019-03-26T20:47:05.199Z,5.30
2019-03-26T20:49:35.099Z,5.57
2019-03-26T20:52:05.053Z,5.47
2019-03-26T20:54:34.995Z,5.17
2019-03-26T20:57:04.958Z,5.13
2019-03-26T20:59:34.835Z,5.13
2019-03-26T21:02:04.790Z,5.10
2019-03-26T21:04:34.679Z,5.37
2019-03-26T21:07:04.675Z,6.13
2019-03-26T21:09:34.590Z,5.33
2019-03-26T21:12:04.544Z,5.73
2019-03-26T21:14:34.443Z,4.87
2019-03-26T21:17:04.356Z,6.40
2019-03-26T21:19:34.283Z,6.27
2019-03-26T21:22:04.180Z,5.43
2019-03-26T21:24:34.524Z,6.00
2019-03-26T21:29:46.458Z,4.77
2019-03-26T21:32:16.423Z,5.53
2019-03-26T21:34:46.378Z,5.50
2019-03-26T21:37:16.287Z,5.70
2019-03-26T21:39:46.192Z,5.87
2019-03-26T21:42:16.051Z,5.00
2019-03-26T21:44:46.029Z,6.33
2019-03-26T21:47:15.941Z,6.17
2019-03-26T21:49:48.391Z,6.23
2019-03-26T21:52:17.443Z,5.97
2019-03-26T21:54:47.359Z,5.87
2019-03-26T21:57:17.177Z,5.63
2019-03-26T21:59:47.066Z,5.10
2019-03-26T22:02:16.911Z,5.93
2019-03-26T22:04:46.808Z,6.00
2019-03-26T22:07:16.682Z,5.57
2019-03-26T22:09:46.568Z,6.20
2019-03-26T22:12:16.440Z,5.93
2019-03-26T22:14:46.316Z,6.30
2019-03-26T22:17:16.189Z,6.10
2019-03-26T22:19:46.094Z,7.00
2019-03-26T22:22:15.945Z,7.40
2019-03-26T22:24:45.806Z,6.43
2019-03-26T22:27:16.568Z,6.77
2019-03-26T22:29:46.454Z,5.77
2019-03-26T22:32:16.296Z,7.50
2019-03-26T22:34:46.160Z,5.97
2019-03-26T22:37:16.048Z,6.90
2019-03-26T22:39:45.910Z,6.10
2019-03-26T22:42:15.840Z,5.60
2019-03-26T22:44:45.720Z,6.60
2019-03-26T22:47:15.644Z,7.20
2019-03-26T22:49:45.517Z,7.47
2019-03-26T22:52:15.400Z,7.27
2019-03-26T22:54:45.247Z,7.70
2019-03-26T22:57:15.200Z,7.80
2019-03-26T22:59:45.103Z,6.97
2019-03-26T23:02:15.029Z,6.47
2019-03-26T23:04:44.922Z,6.57
2019-03-26T23:07:14.932Z,6.17
2019-03-26T23:09:44.815Z,7.03
2019-03-26T23:12:14.664Z,6.43
2019-03-26T23:14:45.622Z,7.03
2019-03-26T23:17:15.568Z,7.53
2019-03-26T23:19:45.435Z,6.83
2019-03-26T23:22:15.362Z,7.13
2019-03-26T23:24:45.270Z,6.87
2019-03-26T23:27:15.136Z,7.20
2019-03-26T23:29:44.985Z,6.60
2019-03-26T23:32:14.857Z,6.67
2019-03-26T23:34:44.788Z,6.07
2019-03-26T23:37:14.653Z,8.00
2019-03-26T23:39:44.544Z,6.57
2019-03-26T23:42:14.365Z,8.60
2019-03-26T23:44:57.476Z,6.57
2019-03-26T23:47:15.833Z,7.47
2019-03-26T23:49:45.677Z,6.77
2019-03-26T23:52:15.799Z,8.27
2019-03-26T23:54:45.649Z,7.10
2019-03-26T23:57:15.472Z,8.37
2019-03-26T23:59:45.352Z,7.83
